sensor_id;sensor_type;location;lat;lon;timestamp;pressure;altitude;pressure_sealevel;temperature;humidity
40075;BME280;26529;51.530;11.754;2023-01-15T00:00:13;98446.66;;;19.78;48.12
40075;BME280;26529;51.530;11.754;2023-01-15T00:02:39;98439.00;;;19.75;48.16
40075;BME280;26529;51.530;11.754;2023-01-15T00:05:05;98432.81;;;19.75;48.20
40075;BME280;26529;51.530;11.754;2023-01-15T00:07:31;98422.31;;;19.73;48.42
40075;BME280;26529;51.530;11.754;2023-01-15T00:09:57;98430.31;;;19.73;48.34
40075;BME280;26529;51.530;11.754;2023-01-15T00:12:23;98412.69;;;19.72;48.27
40075;BME280;26529;51.530;11.754;2023-01-15T00:14:48;98407.66;;;19.69;48.22
40075;BME280;26529;51.530;11.754;2023-01-15T00:17:15;98405.97;;;19.68;48.34
40075;BME280;26529;51.530;11.754;2023-01-15T00:19:41;98398.84;;;19.69;48.30
40075;BME280;26529;51.530;11.754;2023-01-15T00:22:06;98388.34;;;19.67;48.40
40075;BME280;26529;51.530;11.754;2023-01-15T00:24:32;98372.56;;;19.65;48.34
40075;BME280;26529;51.530;11.754;2023-01-15T00:27:17;98382.22;;;19.66;48.33
40075;BME280;26529;51.530;11.754;2023-01-15T00:30:01;98370.03;;;19.64;48.39
40075;BME280;26529;51.530;11.754;2023-01-15T00:32:27;98369.19;;;19.63;48.46
40075;BME280;26529;51.530;11.754;2023-01-15T00:34:54;98364.88;;;19.62;48.34
40075;BME280;26529;51.530;11.754;2023-01-15T00:37:20;98358.72;;;19.62;48.38
40075;BME280;26529;51.530;11.754;2023-01-15T00:39:45;98350.88;;;19.60;48.41
40075;BME280;26529;51.530;11.754;2023-01-15T00:42:12;98344.72;;;19.60;48.46
40075;BME280;26529;51.530;11.754;2023-01-15T00:44:37;98337.75;;;19.59;48.42
40075;BME280;26529;51.530;11.754;2023-01-15T00:47:05;98339.72;;;19.57;48.46
40075;BME280;26529;51.530;11.754;2023-01-15T00:49:31;98332.72;;;19.56;48.51
40075;BME280;26529;51.530;11.754;2023-01-15T00:51:59;98327.41;;;19.56;48.50
40075;BME280;26529;51.530;11.754;2023-01-15T00:54:25;98332.72;;;19.56;48.45
40075;BME280;26529;51.530;11.754;2023-01-15T00:56:51;98332.72;;;19.56;48.44
40075;BME280;26529;51.530;11.754;2023-01-15T00:59:17;98326.69;;;19.53;48.49
40075;BME280;26529;51.530;11.754;2023-01-15T01:01:42;98319.72;;;19.52;48.43
40075;BME280;26529;51.530;11.754;2023-01-15T01:04:08;98326.03;;;19.51;48.44
40075;BME280;26529;51.530;11.754;2023-01-15T01:06:33;98310.06;;;19.51;48.49
40075;BME280;26529;51.530;11.754;2023-01-15T01:08:59;98321.69;;;19.50;48.51
40075;BME280;26529;51.530;11.754;2023-01-15T01:11:24;98322.69;;;19.49;48.56
40075;BME280;26529;51.530;11.754;2023-01-15T01:13:55;98318.38;;;19.48;48.48
40075;BME280;26529;51.530;11.754;2023-01-15T01:18:47;98320.16;;;19.48;48.53
40075;BME280;26529;51.530;11.754;2023-01-15T01:21:13;98326.47;;;19.47;48.49
40075;BME280;26529;51.530;11.754;2023-01-15T01:23:39;98319.31;;;19.47;48.65
40075;BME280;26529;51.530;11.754;2023-01-15T01:26:04;98314.19;;;19.46;48.52
40075;BME280;26529;51.530;11.754;2023-01-15T01:28:30;98302.84;;;19.44;48.59
40075;BME280;26529;51.530;11.754;2023-01-15T01:30:55;98305.50;;;19.44;48.53
40075;BME280;26529;51.530;11.754;2023-01-15T01:33:21;98314.31;;;19.44;48.52
40075;BME280;26529;51.530;11.754;2023-01-15T01:35:47;98313.31;;;19.45;48.77
40075;BME280;26529;51.530;11.754;2023-01-15T01:38:14;98298.50;;;19.43;48.61
40075;BME280;26529;51.530;11.754;2023-01-15T01:40:39;98292.38;;;19.42;48.39
40075;BME280;26529;51.530;11.754;2023-01-15T01:43:17;98297.81;;;19.41;48.66
40075;BME280;26529;51.530;11.754;2023-01-15T01:45:43;98292.50;;;19.41;48.56
40075;BME280;26529;51.530;11.754;2023-01-15T01:48:09;98277.56;;;19.39;48.56
40075;BME280;26529;51.530;11.754;2023-01-15T01:50:36;98281.03;;;19.40;48.51
40075;BME280;26529;51.530;11.754;2023-01-15T01:53:15;98269.72;;;19.38;48.51
40075;BME280;26529;51.530;11.754;2023-01-15T01:55:43;98256.44;;;19.38;48.54
40075;BME280;26529;51.530;11.754;2023-01-15T01:58:09;98246.66;;;19.38;48.63
40075;BME280;26529;51.530;11.754;2023-01-15T02:00:37;98247.63;;;19.37;48.61
40075;BME280;26529;51.530;11.754;2023-01-15T02:03:06;98241.47;;;19.37;48.55
40075;BME280;26529;51.530;11.754;2023-01-15T02:05:37;98244.13;;;19.37;48.75
40075;BME280;26529;51.530;11.754;2023-01-15T02:08:05;98247.78;;;19.36;48.31
40075;BME280;26529;51.530;11.754;2023-01-15T02:10:32;98254.09;;;19.35;48.63
40075;BME280;26529;51.530;11.754;2023-01-15T02:16:16;98241.75;;;19.34;48.66
40075;BME280;26529;51.530;11.754;2023-01-15T02:19:14;98233.78;;;19.34;48.43
40075;BME280;26529;51.530;11.754;2023-01-15T02:22:00;98247.06;;;19.34;48.67
40075;BME280;26529;51.530;11.754;2023-01-15T02:24:48;98234.09;;;19.31;48.60
40075;BME280;26529;51.530;11.754;2023-01-15T02:27:22;98231.31;;;19.32;48.66
40075;BME280;26529;51.530;11.754;2023-01-15T02:30:01;98220.81;;;19.31;48.62
40075;BME280;26529;51.530;11.754;2023-01-15T02:35:12;98241.09;;;19.32;48.73
40075;BME280;26529;51.530;11.754;2023-01-15T02:37:45;98231.44;;;19.31;48.43
40075;BME280;26529;51.530;11.754;2023-01-15T02:40:17;98227.13;;;19.30;48.59
40075;BME280;26529;51.530;11.754;2023-01-15T02:42:45;98230.75;;;19.29;48.64
40075;BME280;26529;51.530;11.754;2023-01-15T02:45:15;98232.25;;;19.31;48.71
40075;BME280;26529;51.530;11.754;2023-01-15T02:47:43;98223.75;;;19.28;48.53
40075;BME280;26529;51.530;11.754;2023-01-15T02:50:13;98218.44;;;19.28;48.61
40075;BME280;26529;51.530;11.754;2023-01-15T02:52:43;98216.63;;;19.28;48.60
40075;BME280;26529;51.530;11.754;2023-01-15T02:55:19;98212.44;;;19.25;48.62
40075;BME280;26529;51.530;11.754;2023-01-15T02:57:48;98216.78;;;19.27;48.61
40075;BME280;26529;51.530;11.754;2023-01-15T03:00:18;98223.06;;;19.25;48.51
40075;BME280;26529;51.530;11.754;2023-01-15T03:02:53;98224.06;;;19.24;48.70
40075;BME280;26529;51.530;11.754;2023-01-15T03:05:25;98218.75;;;19.24;48.63
40075;BME280;26529;51.530;11.754;2023-01-15T03:07:58;98217.91;;;19.24;48.71
40075;BME280;26529;51.530;11.754;2023-01-15T03:10:42;98210.09;;;19.22;48.48
40075;BME280;26529;51.530;11.754;2023-01-15T03:13:28;98207.44;;;19.22;48.71
40075;BME280;26529;51.530;11.754;2023-01-15T03:24:24;98201.41;;;19.20;48.67
40075;BME280;26529;51.530;11.754;2023-01-15T03:26:52;98202.28;;;19.21;48.67
40075;BME280;26529;51.530;11.754;2023-01-15T03:29:21;98206.72;;;19.20;48.61
40075;BME280;26529;51.530;11.754;2023-01-15T03:31:50;98207.59;;;19.21;48.62
40075;BME280;26529;51.530;11.754;2023-01-15T03:34:18;98206.72;;;19.20;48.72
40075;BME280;26529;51.530;11.754;2023-01-15T03:36:45;98209.56;;;19.19;48.83
40075;BME280;26529;51.530;11.754;2023-01-15T03:39:10;98198.94;;;19.19;48.61
40075;BME280;26529;51.530;11.754;2023-01-15T03:44:59;98208.72;;;19.18;48.64
40075;BME280;26529;51.530;11.754;2023-01-15T03:53:28;98281.44;;;19.17;48.58
40075;BME280;26529;51.530;11.754;2023-01-15T03:58:50;98280.75;;;19.15;48.83
40075;BME280;26529;51.530;11.754;2023-01-15T04:01:31;98274.59;;;19.15;48.78
40075;BME280;26529;51.530;11.754;2023-01-15T04:04:00;98278.09;;;19.15;48.77
40075;BME280;26529;51.530;11.754;2023-01-15T04:06:29;98290.53;;;19.15;48.70
40075;BME280;26529;51.530;11.754;2023-01-15T04:08:58;98297.66;;;19.14;48.72
40075;BME280;26529;51.530;11.754;2023-01-15T04:11:25;98308.28;;;19.14;48.66
40075;BME280;26529;51.530;11.754;2023-01-15T04:13:55;98308.28;;;19.14;48.73
40075;BME280;26529;51.530;11.754;2023-01-15T04:16:47;98310.09;;;19.14;48.78
40075;BME280;26529;51.530;11.754;2023-01-15T04:19:12;98310.25;;;19.12;48.78
40075;BME280;26529;51.530;11.754;2023-01-15T04:21:47;98310.25;;;19.12;48.66
40075;BME280;26529;51.530;11.754;2023-01-15T04:24:12;98303.25;;;19.11;48.71
40075;BME280;26529;51.530;11.754;2023-01-15T04:26:37;98316.53;;;19.11;48.81
40075;BME280;26529;51.530;11.754;2023-01-15T04:29:03;98313.88;;;19.11;48.66
40075;BME280;26529;51.530;11.754;2023-01-15T04:31:28;98320.19;;;19.10;48.94
40075;BME280;26529;51.530;11.754;2023-01-15T04:33:56;98321.19;;;19.09;48.88
40075;BME280;26529;51.530;11.754;2023-01-15T04:36:22;98326.50;;;19.09;48.89
40075;BME280;26529;51.530;11.754;2023-01-15T04:38:47;98328.16;;;19.10;48.83
40075;BME280;26529;51.530;11.754;2023-01-15T04:41:13;98332.63;;;19.09;49.01
40075;BME280;26529;51.530;11.754;2023-01-15T04:43:57;98330.13;;;19.08;48.86
40075;BME280;26529;51.530;11.754;2023-01-15T04:46:44;98330.94;;;19.08;48.76
40075;BME280;26529;51.530;11.754;2023-01-15T04:49:12;98328.44;;;19.07;48.80
40075;BME280;26529;51.530;11.754;2023-01-15T04:51:39;98325.78;;;19.07;48.83
40075;BME280;26529;51.530;11.754;2023-01-15T04:54:06;98331.94;;;19.07;48.87
40075;BME280;26529;51.530;11.754;2023-01-15T04:56:35;98340.88;;;19.06;48.93
40075;BME280;26529;51.530;11.754;2023-01-15T04:59:01;98349.69;;;19.07;48.83
40075;BME280;26529;51.530;11.754;2023-01-15T05:01:26;98362.13;;;19.06;48.82
40075;BME280;26529;51.530;11.754;2023-01-15T05:03:52;98364.81;;;19.06;48.89
40075;BME280;26529;51.530;11.754;2023-01-15T05:06:17;98364.94;;;19.05;48.81
40075;BME280;26529;51.530;11.754;2023-01-15T05:08:43;98365.06;;;19.03;49.13
40075;BME280;26529;51.530;11.754;2023-01-15T05:11:09;98360.47;;;19.05;48.89
40075;BME280;26529;51.530;11.754;2023-01-15T05:13:34;98372.06;;;19.04;48.79
40075;BME280;26529;51.530;11.754;2023-01-15T05:18:36;98378.22;;;19.05;48.87
40075;BME280;26529;51.530;11.754;2023-01-15T05:21:02;98379.34;;;19.02;48.79
40075;BME280;26529;51.530;11.754;2023-01-15T05:23:28;98392.63;;;19.02;48.84
40075;BME280;26529;51.530;11.754;2023-01-15T05:25:53;98399.47;;;19.05;48.78
40075;BME280;26529;51.530;11.754;2023-01-15T05:28:18;98388.25;;;19.01;48.86
40075;BME280;26529;51.530;11.754;2023-01-15T05:30:44;98389.09;;;19.02;48.79
40075;BME280;26529;51.530;11.754;2023-01-15T05:33:09;98387.41;;;19.01;48.86
40075;BME280;26529;51.530;11.754;2023-01-15T05:35:35;98409.50;;;19.01;48.88
40075;BME280;26529;51.530;11.754;2023-01-15T05:38:00;98423.78;;;19.00;48.92
40075;BME280;26529;51.530;11.754;2023-01-15T05:40:28;98438.72;;;19.01;48.94
40075;BME280;26529;51.530;11.754;2023-01-15T05:42:53;98445.84;;;19.01;48.87
40075;BME280;26529;51.530;11.754;2023-01-15T05:45:19;98453.00;;;19.00;48.92
40075;BME280;26529;51.530;11.754;2023-01-15T05:47:44;98453.13;;;18.98;48.83
40075;BME280;26529;51.530;11.754;2023-01-15T05:50:10;98464.59;;;18.99;48.95
40075;BME280;26529;51.530;11.754;2023-01-15T05:52:35;98469.06;;;18.98;48.86
40075;BME280;26529;51.530;11.754;2023-01-15T05:55:01;98462.06;;;18.97;48.96
40075;BME280;26529;51.530;11.754;2023-01-15T05:57:26;98472.69;;;18.97;48.95
40075;BME280;26529;51.530;11.754;2023-01-15T05:59:52;98475.34;;;18.97;48.94
40075;BME280;26529;51.530;11.754;2023-01-15T06:02:19;98466.53;;;18.97;49.02
40075;BME280;26529;51.530;11.754;2023-01-15T06:04:44;98468.50;;;18.95;48.94
40075;BME280;26529;51.530;11.754;2023-01-15T06:07:09;98483.44;;;18.96;48.82
40075;BME280;26529;51.530;11.754;2023-01-15T06:09:35;98486.09;;;18.96;48.94
40075;BME280;26529;51.530;11.754;2023-01-15T06:12:00;98479.97;;;18.95;48.97
40075;BME280;26529;51.530;11.754;2023-01-15T06:14:26;98477.31;;;18.95;48.96
40075;BME280;26529;51.530;11.754;2023-01-15T06:16:51;98483.59;;;18.94;48.97
40075;BME280;26529;51.530;11.754;2023-01-15T06:19:18;98488.94;;;18.94;48.96
40075;BME280;26529;51.530;11.754;2023-01-15T06:21:43;98489.75;;;18.95;49.11
40075;BME280;26529;51.530;11.754;2023-01-15T06:24:09;98492.53;;;18.93;48.85
40075;BME280;26529;51.530;11.754;2023-01-15T06:26:34;98498.69;;;18.94;49.03
40075;BME280;26529;51.530;11.754;2023-01-15T06:29:00;98492.53;;;18.93;48.90
40075;BME280;26529;51.530;11.754;2023-01-15T06:31:25;98495.91;;;18.95;49.01
40075;BME280;26529;51.530;11.754;2023-01-15T06:33:51;98514.91;;;19.01;49.10
40075;BME280;26529;51.530;11.754;2023-01-15T06:36:21;98516.34;;;19.05;48.69
40075;BME280;26529;51.530;11.754;2023-01-15T06:38:47;98506.00;;;19.11;48.80
40075;BME280;26529;51.530;11.754;2023-01-15T06:41:18;98518.84;;;19.16;48.69
40075;BME280;26529;51.530;11.754;2023-01-15T06:44:02;98524.72;;;19.20;48.73
40075;BME280;26529;51.530;11.754;2023-01-15T06:46:48;98527.25;;;19.21;48.76
40075;BME280;26529;51.530;11.754;2023-01-15T06:49:33;98525.28;;;19.23;48.76
40075;BME280;26529;51.530;11.754;2023-01-15T06:51:59;98508.50;;;19.23;48.72
40075;BME280;26529;51.530;11.754;2023-01-15T06:54:25;98512.00;;;19.23;48.71
40075;BME280;26529;51.530;11.754;2023-01-15T06:56:51;98523.63;;;19.22;48.72
40075;BME280;26529;51.530;11.754;2023-01-15T06:59:17;98530.59;;;19.23;48.71
40075;BME280;26529;51.530;11.754;2023-01-15T07:01:43;98532.28;;;19.24;48.56
40075;BME280;26529;51.530;11.754;2023-01-15T07:04:09;98531.41;;;19.24;48.57
40075;BME280;26529;51.530;11.754;2023-01-15T07:06:34;98538.44;;;19.25;48.56
40075;BME280;26529;51.530;11.754;2023-01-15T07:09:00;98537.59;;;19.24;48.57
40075;BME280;26529;51.530;11.754;2023-01-15T07:11:25;98542.91;;;19.24;48.56
40075;BME280;26529;51.530;11.754;2023-01-15T07:13:51;98552.53;;;19.25;48.64
40075;BME280;26529;51.530;11.754;2023-01-15T07:16:31;98561.50;;;19.24;48.75
40075;BME280;26529;51.530;11.754;2023-01-15T07:18:56;98560.50;;;19.25;48.55
40075;BME280;26529;51.530;11.754;2023-01-15T07:21:22;98562.47;;;19.23;48.52
40075;BME280;26529;51.530;11.754;2023-01-15T07:23:48;98569.59;;;19.23;48.61
40075;BME280;26529;51.530;11.754;2023-01-15T07:26:13;98551.84;;;19.23;48.59
40075;BME280;26529;51.530;11.754;2023-01-15T07:28:39;98562.19;;;19.27;48.54
40075;BME280;26529;51.530;11.754;2023-01-15T07:31:05;98569.91;;;19.30;48.62
40075;BME280;26529;51.530;11.754;2023-01-15T07:33:30;98580.22;;;19.33;48.70
40075;BME280;26529;51.530;11.754;2023-01-15T07:35:56;98567.66;;;19.35;48.51
40075;BME280;26529;51.530;11.754;2023-01-15T07:38:22;98556.06;;;19.36;48.55
40075;BME280;26529;51.530;11.754;2023-01-15T07:40:48;98559.41;;;19.38;48.55
40075;BME280;26529;51.530;11.754;2023-01-15T07:43:36;98556.75;;;19.38;48.48
40075;BME280;26529;51.530;11.754;2023-01-15T07:46:20;98561.06;;;19.39;48.49
40075;BME280;26529;51.530;11.754;2023-01-15T07:49:08;98561.91;;;19.39;48.49
40075;BME280;26529;51.530;11.754;2023-01-15T07:51:53;98553.22;;;19.47;48.40
40075;BME280;26529;51.530;11.754;2023-01-15T07:54:18;98558.28;;;19.50;48.44
40075;BME280;26529;51.530;11.754;2023-01-15T07:56:43;98548.75;;;19.58;48.40
40075;BME280;26529;51.530;11.754;2023-01-15T07:59:09;98551.84;;;19.53;48.43
40075;BME280;26529;51.530;11.754;2023-01-15T08:01:34;98547.63;;;19.50;48.61
40075;BME280;26529;51.530;11.754;2023-01-15T08:04:00;98550.28;;;19.50;48.61
40075;BME280;26529;51.530;11.754;2023-01-15T08:06:25;98552.09;;;19.50;48.66
40075;BME280;26529;51.530;11.754;2023-01-15T08:08:51;98558.28;;;19.50;48.54
40075;BME280;26529;51.530;11.754;2023-01-15T08:11:16;98559.94;;;19.51;48.57
40075;BME280;26529;51.530;11.754;2023-01-15T08:14:00;98564.69;;;19.58;48.57
40075;BME280;26529;51.530;11.754;2023-01-15T08:16:44;98562.84;;;19.68;48.39
40075;BME280;26529;51.530;11.754;2023-01-15T08:19:10;98569.13;;;19.77;48.26
40075;BME280;26529;51.530;11.754;2023-01-15T08:21:35;98570.25;;;19.74;48.45
40075;BME280;26529;51.530;11.754;2023-01-15T08:24:00;98568.88;;;19.70;48.30
40075;BME280;26529;51.530;11.754;2023-01-15T08:26:26;98587.63;;;19.69;48.40
40075;BME280;26529;51.530;11.754;2023-01-15T08:28:51;98592.94;;;19.69;48.33
40075;BME280;26529;51.530;11.754;2023-01-15T08:31:17;98597.13;;;19.71;48.35
40075;BME280;26529;51.530;11.754;2023-01-15T08:33:42;98600.47;;;19.73;48.30
40075;BME280;26529;51.530;11.754;2023-01-15T08:36:08;98591.53;;;19.74;48.17
40075;BME280;26529;51.530;11.754;2023-01-15T08:38:33;98580.88;;;19.74;48.25
40075;BME280;26529;51.530;11.754;2023-01-15T08:40:59;98590.69;;;19.74;48.32
40075;BME280;26529;51.530;11.754;2023-01-15T08:43:26;98588.03;;;19.74;48.27
40075;BME280;26529;51.530;11.754;2023-01-15T08:45:54;98580.88;;;19.74;48.34
40075;BME280;26529;51.530;11.754;2023-01-15T08:48:19;98586.50;;;19.71;48.30
40075;BME280;26529;51.530;11.754;2023-01-15T08:50:45;98593.50;;;19.72;48.48
40075;BME280;26529;51.530;11.754;2023-01-15T08:53:11;98594.47;;;19.71;48.27
40075;BME280;26529;51.530;11.754;2023-01-15T08:55:37;98596.16;;;19.72;48.22
40075;BME280;26529;51.530;11.754;2023-01-15T08:58:03;98598.81;;;19.72;48.02
40075;BME280;26529;51.530;11.754;2023-01-15T09:00:28;98605.66;;;19.75;48.36
40075;BME280;26529;51.530;11.754;2023-01-15T09:02:54;98613.50;;;19.76;48.18
40075;BME280;26529;51.530;11.754;2023-01-15T09:05:19;98616.84;;;19.78;48.10
40075;BME280;26529;51.530;11.754;2023-01-15T09:07:45;98615.88;;;19.79;47.78
40075;BME280;26529;51.530;11.754;2023-01-15T09:10:11;98621.19;;;19.79;47.86
40075;BME280;26529;51.530;11.754;2023-01-15T09:12:36;98625.69;;;19.79;48.13
40075;BME280;26529;51.530;11.754;2023-01-15T09:15:02;98615.88;;;19.79;48.05
40075;BME280;26529;51.530;11.754;2023-01-15T09:17:30;98617.53;;;19.80;48.11
40075;BME280;26529;51.530;11.754;2023-01-15T09:19:56;98620.38;;;19.79;48.05
40075;BME280;26529;51.530;11.754;2023-01-15T09:22:21;98615.88;;;19.79;48.01
40075;BME280;26529;51.530;11.754;2023-01-15T09:24:47;98612.22;;;19.80;48.11
40075;BME280;26529;51.530;11.754;2023-01-15T09:27:12;98613.06;;;19.81;47.99
40075;BME280;26529;51.530;11.754;2023-01-15T09:29:38;98619.22;;;19.82;47.97
40075;BME280;26529;51.530;11.754;2023-01-15T09:32:04;98624.41;;;19.83;47.96
40075;BME280;26529;51.530;11.754;2023-01-15T09:34:29;98644.44;;;19.87;47.83
40075;BME280;26529;51.530;11.754;2023-01-15T09:36:55;98641.63;;;19.89;47.88
40075;BME280;26529;51.530;11.754;2023-01-15T09:39:20;98649.31;;;19.92;48.02
40075;BME280;26529;51.530;11.754;2023-01-15T09:47:52;98642.78;;;19.96;47.93
40075;BME280;26529;51.530;11.754;2023-01-15T09:50:27;98633.81;;;19.97;48.08
40075;BME280;26529;51.530;11.754;2023-01-15T09:55:46;98637.44;;;19.96;48.04
40075;BME280;26529;51.530;11.754;2023-01-15T09:58:14;98641.06;;;19.95;47.98
40075;BME280;26529;51.530;11.754;2023-01-15T10:00:49;98644.69;;;19.94;48.07
40075;BME280;26529;51.530;11.754;2023-01-15T10:03:41;98648.31;;;19.93;48.02
40075;BME280;26529;51.530;11.754;2023-01-15T10:06:24;98651.84;;;19.93;48.03
40075;BME280;26529;51.530;11.754;2023-01-15T10:08:58;98658.28;;;19.91;48.03
40075;BME280;26529;51.530;11.754;2023-01-15T10:11:34;98662.06;;;19.88;48.13
40075;BME280;26529;51.530;11.754;2023-01-15T10:14:31;98663.19;;;19.86;48.09
40075;BME280;26529;51.530;11.754;2023-01-15T10:17:05;98665.16;;;19.84;48.18
40075;BME280;26529;51.530;11.754;2023-01-15T10:19:39;98664.44;;;19.82;48.21
40075;BME280;26529;51.530;11.754;2023-01-15T10:25:14;98667.38;;;19.78;48.18
40075;BME280;26529;51.530;11.754;2023-01-15T10:27:45;98668.50;;;19.76;48.19
40075;BME280;26529;51.530;11.754;2023-01-15T10:30:16;98674.69;;;19.76;48.24
40075;BME280;26529;51.530;11.754;2023-01-15T10:38:04;98662.91;;;19.79;48.31
40075;BME280;26529;51.530;11.754;2023-01-15T10:46:02;98664.72;;;17.83;44.34
40075;BME280;26529;51.530;11.754;2023-01-15T10:48:53;98654.09;;;17.29;42.21
40075;BME280;26529;51.530;11.754;2023-01-15T10:51:24;98649.03;;;18.13;42.41
40075;BME280;26529;51.530;11.754;2023-01-15T10:53:59;98641.34;;;18.72;42.58
40075;BME280;26529;51.530;11.754;2023-01-15T10:56:31;98639.22;;;19.07;43.21
40075;BME280;26529;51.530;11.754;2023-01-15T11:01:58;98638.00;;;19.41;44.38
40075;BME280;26529;51.530;11.754;2023-01-15T11:04:26;98648.22;;;19.45;44.92
40075;BME280;26529;51.530;11.754;2023-01-15T11:06:53;98640.13;;;19.47;44.93
40075;BME280;26529;51.530;11.754;2023-01-15T11:09:22;98651.31;;;19.50;44.89
40075;BME280;26529;51.530;11.754;2023-01-15T11:11:51;98655.63;;;19.51;44.84
40075;BME280;26529;51.530;11.754;2023-01-15T11:17:22;98655.63;;;19.51;45.08
40075;BME280;26529;51.530;11.754;2023-01-15T11:20:27;98654.09;;;19.49;45.59
40075;BME280;26529;51.530;11.754;2023-01-15T11:22:55;98665.16;;;19.44;45.83
40075;BME280;26529;51.530;11.754;2023-01-15T11:25:30;98667.13;;;19.42;45.93
40075;BME280;26529;51.530;11.754;2023-01-15T11:27:57;98672.44;;;19.42;45.84
40075;BME280;26529;51.530;11.754;2023-01-15T11:30:29;98692.84;;;19.42;45.87
40075;BME280;26529;51.530;11.754;2023-01-15T11:32:58;98682.50;;;19.38;45.91
40075;BME280;26529;51.530;11.754;2023-01-15T11:35:24;98677.31;;;19.37;46.02
40075;BME280;26529;51.530;11.754;2023-01-15T11:38:01;98683.44;;;19.37;46.07
40075;BME280;26529;51.530;11.754;2023-01-15T11:40:26;98678.31;;;19.36;46.01
40075;BME280;26529;51.530;11.754;2023-01-15T11:42:52;98686.28;;;19.36;46.13
40075;BME280;26529;51.530;11.754;2023-01-15T11:45:50;98680.09;;;19.35;46.14
40075;BME280;26529;51.530;11.754;2023-01-15T11:48:43;98677.44;;;19.35;46.07
40075;BME280;26529;51.530;11.754;2023-01-15T11:51:28;98674.91;;;19.34;46.10
40075;BME280;26529;51.530;11.754;2023-01-15T11:53:59;98673.25;;;19.33;46.23
40075;BME280;26529;51.530;11.754;2023-01-15T11:56:27;98679.53;;;19.32;46.33
40075;BME280;26529;51.530;11.754;2023-01-15T11:58:56;98683.31;;;19.29;46.19
40075;BME280;26529;51.530;11.754;2023-01-15T12:01:29;98686.09;;;19.28;46.19
40075;BME280;26529;51.530;11.754;2023-01-15T12:03:57;98685.28;;;19.27;46.21
40075;BME280;26529;51.530;11.754;2023-01-15T12:06:24;98689.72;;;19.27;46.37
40075;BME280;26529;51.530;11.754;2023-01-15T12:11:51;98676.75;;;19.23;46.44
40075;BME280;26529;51.530;11.754;2023-01-15T12:17:19;98681.34;;;19.21;46.54
40075;BME280;26529;51.530;11.754;2023-01-15T12:22:38;98655.75;;;19.20;46.54
40075;BME280;26529;51.530;11.754;2023-01-15T12:28:03;98667.34;;;19.19;46.55
40075;BME280;26529;51.530;11.754;2023-01-15T12:33:15;98651.53;;;19.18;46.65
40075;BME280;26529;51.530;11.754;2023-01-15T12:35:49;98658.69;;;19.17;46.60
40075;BME280;26529;51.530;11.754;2023-01-15T12:38:50;98653.38;;;19.17;46.79
40075;BME280;26529;51.530;11.754;2023-01-15T12:41:18;98647.38;;;19.15;46.72
40075;BME280;26529;51.530;11.754;2023-01-15T12:43:51;98657.00;;;19.16;46.81
40075;BME280;26529;51.530;11.754;2023-01-15T12:46:38;98676.59;;;19.15;46.86
40075;BME280;26529;51.530;11.754;2023-01-15T12:49:24;98673.22;;;19.13;46.89
40075;BME280;26529;51.530;11.754;2023-01-15T12:52:09;98642.31;;;19.12;46.87
40075;BME280;26529;51.530;11.754;2023-01-15T12:54:40;98637.97;;;19.11;46.95
40075;BME280;26529;51.530;11.754;2023-01-15T12:57:15;98649.28;;;19.13;47.05
40075;BME280;26529;51.530;11.754;2023-01-15T13:00:00;98643.28;;;19.11;47.09
40075;BME280;26529;51.530;11.754;2023-01-15T13:02:53;98631.00;;;19.10;47.03
40075;BME280;26529;51.530;11.754;2023-01-15T13:05:42;98643.59;;;19.08;47.11
40075;BME280;26529;51.530;11.754;2023-01-15T13:10:59;98655.03;;;19.08;47.14
40075;BME280;26529;51.530;11.754;2023-01-15T13:13:45;98659.53;;;19.08;47.17
40075;BME280;26529;51.530;11.754;2023-01-15T13:19:25;98663.13;;;19.07;47.05
40075;BME280;26529;51.530;11.754;2023-01-15T13:21:56;98660.63;;;19.05;47.24
40075;BME280;26529;51.530;11.754;2023-01-15T13:27:55;98675.72;;;19.05;47.24
40075;BME280;26529;51.530;11.754;2023-01-15T13:33:25;98688.88;;;19.06;47.25
40075;BME280;26529;51.530;11.754;2023-01-15T13:36:23;98687.19;;;19.05;47.24
40075;BME280;26529;51.530;11.754;2023-01-15T13:38:49;98691.78;;;19.03;47.27
40075;BME280;26529;51.530;11.754;2023-01-15T13:41:34;98689.13;;;19.03;47.32
40075;BME280;26529;51.530;11.754;2023-01-15T13:44:21;98698.94;;;19.03;47.31
40075;BME280;26529;51.530;11.754;2023-01-15T13:46:59;98702.53;;;19.02;47.37
40075;BME280;26529;51.530;11.754;2023-01-15T13:49:33;98717.38;;;19.04;47.39
40075;BME280;26529;51.530;11.754;2023-01-15T13:52:00;98709.56;;;19.03;47.41
40075;BME280;26529;51.530;11.754;2023-01-15T13:54:29;98717.53;;;19.03;47.42
40075;BME280;26529;51.530;11.754;2023-01-15T13:57:18;98710.50;;;19.02;47.54
40075;BME280;26529;51.530;11.754;2023-01-15T13:59:45;98725.50;;;19.03;47.31
40075;BME280;26529;51.530;11.754;2023-01-15T14:02:22;98751.28;;;19.01;47.36
40075;BME280;26529;51.530;11.754;2023-01-15T14:04:48;98745.03;;;19.02;47.29
40075;BME280;26529;51.530;11.754;2023-01-15T14:07:18;98758.31;;;19.02;47.60
40075;BME280;26529;51.530;11.754;2023-01-15T14:09:44;98760.97;;;19.02;47.42
40075;BME280;26529;51.530;11.754;2023-01-15T14:15:18;98771.47;;;19.03;47.47
40075;BME280;26529;51.530;11.754;2023-01-15T14:26:16;98789.47;;;18.99;47.39
40075;BME280;26529;51.530;11.754;2023-01-15T14:29:04;98783.31;;;18.99;47.44
40075;BME280;26529;51.530;11.754;2023-01-15T14:31:49;98802.03;;;18.97;47.53
40075;BME280;26529;51.530;11.754;2023-01-15T14:34:29;98814.09;;;19.02;47.55
40075;BME280;26529;51.530;11.754;2023-01-15T14:37:00;98816.94;;;19.10;47.34
40075;BME280;26529;51.530;11.754;2023-01-15T14:39:41;98809.28;;;19.17;47.35
40075;BME280;26529;51.530;11.754;2023-01-15T14:44:59;98820.56;;;19.40;47.15
40075;BME280;26529;51.530;11.754;2023-01-15T14:52:54;98839.75;;;19.53;47.15